Accueil
METAR-TAF:

METAR-TAF

Aéroports :

Aéroport Léonard-de-Vinci de Rome Fiumicino

Rome-Fiumicino, Italie

latitude: 41-48N, longitude: 012-14E, altitude: 2 m

Observation

Le bulletin a été fait il y a 20 minutes, à 18:50 UTC
Vent 8 kt de nord
Température 8°C
Humidité 71%
Pression 1016 hPa
Visibilité 10 km ou plus
Nuages épars à une hauteur de 5500 ft

METAR: LIRF 311850Z 01008KT 9999 SCT055 08/03 Q1016 TEMPO RA

Heure: 21:10 (19:10 UTC)

Prévision

Le bulletin a été fait il y a 2 heures et 10 minutes, à 17:00 UTC
Prévision valable du 31 à 18 UTC au 01 à 24 UTC
Vent 15 kt de nord/nord-est
Visibilité 10 km ou plus
Quelques nuages à une hauteur de 3000 ft

TAF: LIRF 311700Z 3118/0124 02015KT 9999 FEW030

Observations et prévisions météorologiques de plus de 4000 aéroports (messages METAR et TAF).

Les stations disponibles sont représentées par des disques jaunes et rouges sur la carte.

Passer la souris dessus pour voir le nom de la station.

Cliquer dessus pour voir les observations et prévisions météorologiques.

Pour changer de carte: cliquez sur les boutons verts avec une croix noire pour zoomer, sur le bouton vert avec un tiret pour effectuer un zoom arrière, ou sur les flèches vertes pour les cartes adjacentes.


METAR-TAF: